Flight Track Log - Related Links

Times and Time Zones

All times are in EDT time to prevent confusion due to time zone crossing. See the SWA104 flight status page for this flight to view local times or setup timezone preferences in your user account.

Time Position Orientation Groundspeed Altitude Reporting Facility
EDT Latitude Longitude Course Direction KTS MPH feet Rate Location/Type
Fri 10:34:52 PM 42.9167 -71.4167 211° Southwest 158 182 1,400  Level KA90
Fri 10:35:15 PM 42.9022 -71.4283 211° Southwest 158 182 2,200 3,037 Climbing Boston Center
Fri 10:36:13 PM 42.8881 -71.4708 246° West 165 190 5,500 3,250 Climbing Boston Center
Fri 10:37:15 PM 42.9544 -71.4386 20° North 168 193 8,700 2,700 Climbing Boston Center
Fri 10:38:13 PM 42.9911 -71.3275 66° East 279 321 10,900 2,847 Climbing Boston Center
Fri 10:39:13 PM 43.0414 -71.1731 66° East 350 403 14,300 2,975 Climbing Boston Center
Fri 10:40:14 PM 43.0583 -71.0136 82° East 409 471 16,900 2,800 Climbing Boston Center
Fri 10:41:13 PM 43.0131 -70.9011 119° Southeast 371 427 19,900 2,471 Climbing Boston Center
Fri 10:42:13 PM 42.9133 -70.9119 185° South 293 337 21,800 1,934 Climbing Boston Center
Fri 10:43:14 PM 42.8139 -70.9656 202° Southwest 307 353 23,800 2,168 Climbing Boston Center
Fri 10:44:12 PM 42.7083 -71.0189 200° South 359 413 26,100 2,218 Climbing Boston Center
Fri 10:45:13 PM 42.6156 -71.0944 211° Southwest 374 430 28,200 2,281 Climbing Boston Center
Fri 10:46:13 PM 42.5564 -71.2169 237° Southwest 383 441 30,700 1,377 Climbing Boston Center
Fri 10:47:15 PM 42.4950 -71.3364 235° Southwest 383 441 31,000 885 Climbing Boston Center
Fri 10:48:15 PM 42.4358 -71.4528 235° Southwest 390 449 32,500 1,525 Climbing Boston Center
Fri 10:49:13 PM 42.3639 -71.5803 233° Southwest 385 443 34,000 763 Climbing Boston Center
Fri 10:50:13 PM 42.3061 -71.6933 235° Southwest 385 443 34,000  Level Boston Center
Fri 10:51:14 PM 42.2444 -71.8036 233° Southwest 385 443 34,000  Level Boston Center
Fri 10:52:15 PM 42.1844 -71.9189 235° Southwest 385 443 34,000  Level Boston Center
Fri 10:53:15 PM 42.1244 -72.0314 234° Southwest 385 443 34,000  Level Boston Center
Fri 10:54:12 PM 42.0667 -72.1408 235° Southwest 380 437 34,000  Level Boston Center
Fri 10:55:15 PM 42.0042 -72.2528 233° Southwest 375 432 34,000  Level Boston Center
Fri 10:56:13 PM 41.9461 -72.3675 236° Southwest 375 432 34,000  Level Boston Center
Fri 10:57:13 PM 41.8856 -72.4792 234° Southwest 380 437 34,000  Level Boston Center
Fri 10:58:14 PM 41.8231 -72.5933 234° Southwest 380 437 34,000  Level Boston Center
Fri 10:59:15 PM 41.7644 -72.7044 235° Southwest 380 437 34,000  Level Boston Center
Fri 11:00:13 PM 41.7164 -72.7933 234° Southwest 380 437 34,000  Level Boston Center
Fri 11:01:14 PM 41.6511 -72.9125 234° Southwest 380 437 34,000  Level Boston Center
Fri 11:02:12 PM 41.5903 -73.0231 234° Southwest 380 437 34,000  Level Boston Center
Fri 11:03:13 PM 41.5269 -73.1444 235° Southwest 380 437 34,000  Level Boston Center
Fri 11:04:13 PM 41.4658 -73.2517 233° Southwest 374 430 34,000  Level Boston Center
Fri 11:06:24 PM 41.3411 -73.4767 234° Southwest 369 425 34,000  Level New York Center
Fri 11:07:24 PM 41.2736 -73.6008 234° Southwest 378 435 34,000  Level New York Center
Fri 11:08:22 PM 41.2083 -73.7083 231° Southwest 378 435 34,000  Level New York Center
Fri 11:09:22 PM 41.1453 -73.8158 232° Southwest 378 435 34,000  Level New York Center
Fri 11:10:22 PM 41.0819 -73.9231 232° Southwest 378 435 34,000  Level New York Center
Fri 11:11:23 PM 41.0167 -74.0300 231° Southwest 378 435 34,000 -344 Level New York Center
Fri 11:12:24 PM 40.9553 -74.1342 232° Southwest 378 435 33,300 -1,210 Descending New York Center
Fri 11:13:22 PM 40.8986 -74.2219 230° Southwest 373 429 31,600 -1,932 Descending New York Center
Fri 11:14:22 PM 40.8394 -74.3231 232° Southwest 359 413 29,500 -1,785 Descending New York Center
Fri 11:15:23 PM 40.7803 -74.4158 230° Southwest 353 406 28,000 -744 Descending New York Center
Fri 11:16:23 PM 40.7253 -74.5114 233° Southwest 348 400 28,000 -198 Level New York Center
Fri 11:17:24 PM 40.6681 -74.6042 231° Southwest 343 395 27,600 -694 Descending New York Center
Fri 11:18:24 PM 40.6108 -74.6967 231° Southwest 338 389 26,600 -1,068 Descending New York Center
Fri 11:19:22 PM 40.5536 -74.7889 231° Southwest 338 389 25,500 -1,068 Descending New York Center
Fri 11:20:22 PM 40.4944 -74.8700 226° Southwest 333 383 24,500 -992 Descending New York Center
Fri 11:21:23 PM 40.4353 -74.9539 227° Southwest 321 369 23,500 -1,000 Descending New York Center
Fri 11:22:22 PM 40.3761 -75.0375 227° Southwest 321 369 22,500 -1,000 Descending New York Center
Fri 11:23:23 PM 40.3189 -75.1183 227° Southwest 315 362 21,500 -992 Descending New York Center
Fri 11:24:23 PM 40.2639 -75.1964 227° Southwest 303 349 20,500 -992 Descending New York Center
Fri 11:25:24 PM 40.2111 -75.2692 226° Southwest 298 343 19,500 -738 Descending New York Center
Fri 11:26:25 PM 40.1497 -75.3494 225° Southwest 293 337 19,000 -254 Descending New York Center
Fri 11:27:22 PM 40.1056 -75.4144 228° Southwest 288 331 19,000  Level New York Center
Fri 11:28:22 PM 40.0483 -75.4919 226° Southwest 277 319 19,000  Level New York Center
Fri 11:29:24 PM 39.9997 -75.5564 225° Southwest 277 319 19,000 -650 Level New York Center
Fri 11:30:22 PM 39.9444 -75.6364 228° Southwest 277 319 17,700 -1,109 Descending New York Center
Fri 11:31:23 PM 39.9019 -75.7039 231° Southwest 277 319 16,800 -976 Descending New York Center
Fri 11:32:25 PM 39.8567 -75.7872 235° Southwest 269 310 15,700 -1,050 Descending New York Center
Fri 11:34:03 PM 39.7833 -75.9167 234° Southwest 257 296 14,000 -987 Descending Potomac TRACON
Fri 11:35:03 PM 39.7500 -76.0000 243° Southwest 255 293 13,100 -1,000 Descending Potomac TRACON
Fri 11:36:03 PM 39.7000 -76.0667 226° Southwest 252 290 12,000 -992 Descending Potomac TRACON
Fri 11:37:04 PM 39.6333 -76.1000 201° Southwest 250 288 11,100 -1,091 Descending Potomac TRACON
Fri 11:38:04 PM 39.5833 -76.1333 207° Southwest 238 274 9,800 -1,200 Descending Potomac TRACON
Fri 11:39:04 PM 39.5167 -76.1667 201° Southwest 220 253 8,700 -1,289 Descending Potomac TRACON
Fri 11:40:05 PM 39.4667 -76.2000 207° Southwest 218 251 7,200 -1,339 Descending Potomac TRACON
Fri 11:41:05 PM 39.4167 -76.2500 218° Southwest 211 243 6,000 -1,450 Descending Potomac TRACON
Fri 11:42:05 PM 39.3667 -76.2833 207° Southwest 216 249 4,300 -1,438 Descending Potomac TRACON
Fri 11:43:06 PM 39.3000 -76.3167 201° Southwest 242 278 3,100 -803 Descending Potomac TRACON
Fri 11:44:12 PM 39.2500 -76.3667 218° Southwest 241 277 2,600 -550 Descending Potomac TRACON
Fri 11:45:06 PM 39.1833 -76.4167 210° Southwest 252 290 2,000 -263 Descending Potomac TRACON
Fri 11:46:06 PM 39.1333 -76.4667 218° Southwest 244 281 2,100  Climbing Potomac TRACON
Fri 11:47:12 PM 39.0833 -76.5167 218° Southwest 190 219 2,000  Descending Potomac TRACON
Fri 11:48:18 PM 39.0833 -76.5667 270° West 156 180 2,100  Climbing Potomac TRACON
Fri 11:49:18 PM 39.1000 -76.6000 303° West 150 173 2,000 -550 Descending Potomac TRACON
Fri 11:50:18 PM 39.1333 -76.6333 322° Northwest 126 145 1,000 -1,000 Descending Potomac TRACON
Fri 11:52:00 PM 39.1754 -76.6683 353° North  Level Estimated
Fri 11:59:00 PM 39.1754 -76.6683 270° West  Level Estimated
Sat 12:00:00 AM 39.1754 -76.6683 270° West  Level Estimated
Sat 12:01:00 AM 39.1754 -76.6683 270° West  Level Estimated
Sat 12:02:00 AM 39.1754 -76.6683 270° West  Level Estimated
Sat 12:03:00 AM 39.1754 -76.6683 270° West  Level Estimated

Login

Don't have an account? Register now (free) for customized features, flight alerts, and more!